Current Conditions

Updated: 05-Sep-2015 07:09 AM  
Summary / Temperature Wind Rain






Feels like: 57°F

1-hour difference
0.1°F 0.1°F colder than last hour.

24-hour difference
6.0°F6.0°F colder than yesterday at this time.

  Today Yesterday
High: 67.6°F
12:00 AM
90.3°F
5:02 PM
Low: 55.6°F
6:35 AM
61.1°F
5:27 AM
Calm ESE
0.0
Gust:  0.0 mph
0 Beaufort - Calm

Today: 4.0 - 12:34 AM
Month: 7.0 mph - Sep 3
Rain Today: 0.00 in
Current Rate (/hr): 0.00 in
Max Rate (/hr):
Rain Yesterday: 0.00 in
Storm Rain: 0.00 in
This Month: 0.00 in
Season Total: 0.09 in
Last Rain Event: 46 days ago
Humidity / Barometer Sun / Moon
Humidity: 70 Increased 1.0% in the last hour.
Dew Point: 46.8°F Increased 0.2°F in the last hour.
Barometer: 29.882 inHg  
Baro Trend: Rising slowly
Sunrise: 6:30 AM
Sunset: 7:19 PM
Moonrise: 11:49 PM
Moonset: 1:57 PM
Sky Conditions UV Index
Sky: Clear
Visibility: 10 miles
Clouds: None
KPTV - 6:35 AM PDT
Current: 0.0  None 
Saturday: 7.0  High 
Sunday: 7.9  High 
Air Quality Fire Danger
 Good 
Ozone 5 ppb
PM 2.5 10 μg/m3
7:00 AM PDT
Current: 3  Low 

Local Alerts Local Forecast
Local NWS Alerts
Today

Sunny

High 86
Tonight

Clear

Low 55
Sun

Mostly
Sunny
High 90
Sun night

Clear

Low 57
Mon

Mostly
Sunny
High 93
Mon night

Clear

Low 61
Tue

Mostly
Sunny
High 95

Local Radar Local Satellite Neighborhood Cam Sky Cam
Local Radar Local Satellite Neighborhood Cam Sky Cam


Nearby Personal Stations

Weather Underground PWS KCAPORTE5 Weather Underground PWS KCAPORTE8

Nearby METAR / Airport Stations

KPTV - Porterville, California, USA
Distance from station: SSW 4mi, 7km
Updated: Sat, 05-Sep-2015 6:55am PDT
Clear
Clear
 Wind from SSE
Wind: SSE 5 mph , 7 km/h
Temperature: 54°F , 12°C
Dew Point: 41°F , 5°C
Humidity: 63%
Barometer: 29.93 inHg , 1013.5 hPa
Clouds: Clear
Visibility: 10 miles , 16 km
2015/09/05 13:55 KPTV 051355Z AUTO 16004KT 10SM CLR 12/05 A2993 RMK AO1
KVIS - Visalia, California, USA
Distance from station: NW 27mi, 43km
Updated: Sat, 05-Sep-2015 6:56am PDT
Clear
Clear
 Wind from S
Wind: S 5 mph , 7 km/h
Temperature: 54°F , 12°C
Dew Point: 46°F , 8°C
Humidity: 77%
Barometer: 29.92 inHg , 1013.2 hPa
Clouds: Clear
Visibility: 10 miles , 16 km
2015/09/05 13:56 KVIS 051356Z AUTO 19004KT 10SM CLR 12/08 A2992 RMK AO2 SLP136 T01170078

Metar display script from Saratoga-Weather.org



Visitor Map